Time;durP1;ratioP1;P1;durP2;ratioP2;P2;SDS_P1;SDS_P2;PMS_P1;PMS_P2;Temp;Humidity;BMP_temperature;BMP_pressure;BME280_temperature;BME280_humidity;BME280_pressure;Samples;Min_cycle;Max_cycle;Signal;HPM_P1;HPM_P2
2022/10/29 00:02:01;;;;;;;35.17;18.85;;;;;;;7.38;100.00;98838.41;1679425;85;21790;-80
2022/10/29 00:04:27;;;;;;;35.30;19.02;;;;;;;7.24;100.00;98839.20;1679322;85;20876;-82
2022/10/29 00:06:53;;;;;;;28.57;15.98;;;;;;;7.24;100.00;98840.02;1681568;84;20884;-82
2022/10/29 00:09:19;;;;;;;29.65;15.20;;;;;;;7.19;100.00;98843.97;1714498;82;20957;-82
2022/10/29 00:11:45;;;;;;;32.75;16.67;;;;;;;7.20;100.00;98842.09;1714998;82;21607;-80
2022/10/29 00:14:10;;;;;;;27.50;16.30;;;;;;;7.19;100.00;98843.97;1703729;84;21328;-82
2022/10/29 00:16:38;;;;;;;27.48;18.02;;;;;;;7.15;100.00;98843.32;1712081;83;20877;-82
2022/10/29 00:19:04;;;;;;;33.25;19.50;;;;;;;7.04;100.00;98837.72;1715544;82;20965;-82
2022/10/29 00:21:30;;;;;;;32.58;20.02;;;;;;;7.03;100.00;98836.09;1714337;83;21013;-82
2022/10/29 00:23:56;;;;;;;28.20;16.90;;;;;;;7.01;100.00;98840.08;1714199;83;20870;-82
2022/10/29 00:26:23;;;;;;;30.15;17.75;;;;;;;6.94;100.00;98836.16;1688348;82;21140;-81
2022/10/29 00:28:53;;;;;;;25.32;14.73;;;;;;;6.94;100.00;98835.34;1710390;82;21497;-82
2022/10/29 00:31:19;;;;;;;26.37;14.07;;;;;;;6.92;100.00;98830.69;1707953;84;20978;-81
2022/10/29 00:33:45;;;;;;;24.80;13.90;;;;;;;6.93;100.00;98825.63;1708019;84;20875;-82
2022/10/29 00:36:15;;;;;;;28.32;15.28;;;;;;;6.95;100.00;98826.20;1708046;84;21473;-82
2022/10/29 00:38:41;;;;;;;22.75;13.68;;;;;;;6.94;100.00;98822.69;1707868;84;21195;-82
2022/10/29 00:41:07;;;;;;;26.17;14.85;;;;;;;6.95;100.00;98829.70;1707835;84;21017;-81
2022/10/29 00:43:35;;;;;;;22.48;13.28;;;;;;;6.97;100.00;98824.08;1699796;83;21015;-82
2022/10/29 00:46:08;;;;;;;27.48;14.05;;;;;;;6.97;100.00;98825.42;1679549;85;21055;-82
2022/10/29 00:48:38;;;;;;;23.25;13.10;;;;;;;7.02;100.00;98827.71;1657420;85;21056;-83
2022/10/29 00:51:05;;;;;;;17.95;11.57;;;;;;;7.09;100.00;98823.52;1679630;83;21958;-82
2022/10/29 00:53:34;;;;;;;18.75;11.88;;;;;;;7.12;100.00;98814.98;1679320;85;20980;-80
2022/10/29 00:56:00;;;;;;;21.62;11.70;;;;;;;7.21;100.00;98817.59;1679271;85;21448;-82
2022/10/29 00:58:26;;;;;;;24.92;12.55;;;;;;;7.41;100.00;98814.47;1679480;85;20881;-82
2022/10/29 01:00:52;;;;;;;21.25;12.47;;;;;;;7.49;100.00;98821.36;1679528;85;20963;-82
2022/10/29 01:03:18;;;;;;;22.45;13.05;;;;;;;7.46;100.00;98814.58;1679547;85;21049;-82
2022/10/29 01:05:44;;;;;;;23.32;11.12;;;;;;;7.44;100.00;98814.55;1679671;85;20932;-82
2022/10/29 01:08:10;;;;;;;26.30;13.05;;;;;;;7.45;100.00;98810.78;1676081;84;21358;-82
2022/10/29 01:10:59;;;;;;;21.73;11.97;;;;;;;7.35;100.00;98812.75;1704477;84;21555;-82
2022/10/29 01:13:41;;;;;;;27.90;12.15;;;;;;;7.30;100.00;98804.55;1714378;82;21001;-81
2022/10/29 01:16:25;;;;;;;19.32;10.98;;;;;;;7.31;100.00;98804.84;1710406;82;21454;-82
2022/10/29 01:19:28;;;;;;;19.65;10.20;;;;;;;7.33;100.00;98800.84;1713547;83;21052;-81
2022/10/29 01:22:02;;;;;;;20.90;10.25;;;;;;;7.34;100.00;98798.95;1711498;83;20993;-81
2022/10/29 01:25:06;;;;;;;20.37;10.65;;;;;;;7.30;100.00;98804.55;1710232;82;21010;-82
2022/10/29 01:28:03;;;;;;;22.30;11.28;;;;;;;7.29;100.00;98801.04;1712860;82;20998;-81
2022/10/29 01:31:08;;;;;;;19.85;11.65;;;;;;;7.19;100.00;98791.94;1708024;84;21180;-82
2022/10/29 01:34:00;;;;;;;18.77;10.85;;;;;;;7.14;100.00;98790.48;1707862;83;21042;-82
2022/10/29 01:36:34;;;;;;;22.65;11.03;;;;;;;7.12;100.00;98792.06;1708068;84;21030;-82
2022/10/29 01:39:21;;;;;;;18.90;9.00;;;;;;;7.18;100.00;98792.47;1707632;83;21430;-82
2022/10/29 01:41:57;;;;;;;22.65;12.93;;;;;;;7.43;100.00;98792.13;1708222;83;21435;-80
2022/10/29 01:44:28;;;;;;;19.45;12.58;;;;;;;7.55;100.00;98788.87;1690187;84;21085;-82
2022/10/29 01:46:58;;;;;;;20.27;13.15;;;;;;;7.49;100.00;98787.66;1679539;85;21091;-81
2022/10/29 01:49:34;;;;;;;20.20;12.75;;;;;;;7.35;100.00;98793.34;1679509;85;21008;-81
2022/10/29 01:52:01;;;;;;;21.65;10.32;;;;;;;7.24;100.00;98783.94;1679543;85;21429;-81
2022/10/29 01:54:27;;;;;;;19.30;10.25;;;;;;;7.06;100.00;98779.00;1658034;85;20987;-81
2022/10/29 01:56:57;;;;;;;18.52;10.98;;;;;;;7.07;100.00;98781.98;1679721;85;21018;-82
2022/10/29 01:59:26;;;;;;;22.13;10.68;;;;;;;7.05;100.00;98777.37;1679248;85;21043;-82
2022/10/29 02:02:12;;;;;;;22.93;10.30;;;;;;;7.05;100.00;98777.37;1679826;85;20983;-82
2022/10/29 02:04:49;;;;;;;21.55;11.68;;;;;;;7.06;100.00;98768.75;1679535;85;21027;-81
2022/10/29 02:07:35;;;;;;;21.55;12.95;;;;;;;7.06;100.00;98776.31;1685861;83;21062;-82
2022/10/29 02:10:09;;;;;;;19.32;11.55;;;;;;;7.01;100.00;98769.48;1708177;83;21141;-82
2022/10/29 02:12:48;;;;;;;19.35;11.00;;;;;;;6.96;100.00;98770.72;1707796;83;20990;-81
2022/10/29 02:15:31;;;;;;;20.88;11.20;;;;;;;6.91;100.00;98765.73;1708186;83;21455;-80
2022/10/29 02:18:05;;;;;;;17.07;10.80;;;;;;;6.87;100.00;98760.55;1707848;83;20998;-81
2022/10/29 02:20:31;;;;;;;21.50;10.05;;;;;;;6.83;100.00;98757.49;1708115;84;21060;-81
2022/10/29 02:22:57;;;;;;;21.68;11.73;;;;;;;6.76;100.00;98758.99;1707981;83;21147;-81
2022/10/29 02:25:23;;;;;;;27.02;12.05;;;;;;;6.75;100.00;98760.55;1707341;84;20835;-81
2022/10/29 02:27:49;;;;;;;25.27;13.25;;;;;;;6.77;100.00;98752.55;1706509;83;21021;-81
2022/10/29 02:30:16;;;;;;;25.23;13.45;;;;;;;6.84;100.00;98751.08;1706683;83;21028;-81
2022/10/29 02:32:41;;;;;;;28.38;13.62;;;;;;;6.93;100.00;98752.88;1706482;83;21461;-82
2022/10/29 02:35:08;;;;;;;34.85;17.07;;;;;;;7.03;100.00;98749.84;1706699;84;21103;-82
2022/10/29 02:37:34;;;;;;;55.15;19.32;;;;;;;7.11;100.00;98760.78;1706169;84;21009;-82
2022/10/29 02:40:00;;;;;;;63.65;27.58;;;;;;;7.30;100.00;98744.70;1706389;84;20905;-82
2022/10/29 02:42:26;;;;;;;21.80;12.28;;;;;;;7.91;100.00;98746.33;1706431;84;20986;-82
2022/10/29 02:44:52;;;;;;;20.60;11.88;;;;;;;8.07;100.00;98750.09;1706351;84;20879;-81
2022/10/29 02:47:18;;;;;;;19.82;11.55;;;;;;;7.95;100.00;98744.79;1714212;83;21141;-81
2022/10/29 02:49:44;;;;;;;17.55;10.53;;;;;;;7.82;100.00;98747.26;1711708;83;20839;-82
2022/10/29 02:52:10;;;;;;;13.78;8.45;;;;;;;7.73;100.00;98748.72;1703374;82;34685;-81
2022/10/29 02:54:38;;;;;;;20.92;10.93;;;;;;;7.67;100.00;98750.22;1715148;82;20873;-82
2022/10/29 02:57:04;;;;;;;15.98;10.68;;;;;;;7.60;100.00;98752.53;1714252;83;21464;-82
2022/10/29 02:59:30;;;;;;;28.73;10.55;;;;;;;7.53;100.00;98759.16;1711235;83;21066;-81
2022/10/29 03:01:56;;;;;;;17.48;10.10;;;;;;;7.33;100.00;98747.45;1714116;82;20854;-81
2022/10/29 03:04:22;;;;;;;19.17;10.23;;;;;;;7.17;100.00;98746.33;1711366;83;20885;-82
2022/10/29 03:06:48;;;;;;;13.20;9.55;;;;;;;7.05;100.00;98749.08;1715495;82;20894;-81
2022/10/29 03:09:13;;;;;;;18.90;9.43;;;;;;;7.00;100.00;98742.22;1736848;82;20874;-81
2022/10/29 03:11:39;;;;;;;16.50;9.55;;;;;;;6.91;100.00;98750.92;1737364;82;21122;-81
2022/10/29 03:14:05;;;;;;;19.15;8.40;;;;;;;6.88;100.00;98751.41;1736584;82;21008;-81
2022/10/29 03:16:32;;;;;;;19.73;8.05;;;;;;;6.85;100.00;98745.97;1736628;82;21608;-81
2022/10/29 03:18:58;;;;;;;15.58;8.15;;;;;;;6.86;100.00;98750.30;1736796;82;20870;-81
2022/10/29 03:21:23;;;;;;;17.10;8.65;;;;;;;6.92;100.00;98745.32;1737007;82;20969;-81
2022/10/29 03:23:49;;;;;;;15.48;9.15;;;;;;;6.94;100.00;98748.59;1736783;81;21136;-81
2022/10/29 03:26:15;;;;;;;14.63;8.10;;;;;;;6.93;100.00;98744.26;1728229;82;21575;-81
2022/10/29 03:28:41;;;;;;;16.40;8.23;;;;;;;6.95;100.00;98741.32;1725765;83;20961;-82
2022/10/29 03:31:07;;;;;;;13.68;8.08;;;;;;;6.98;100.00;98734.91;1726136;83;21311;-80
2022/10/29 03:33:34;;;;;;;15.38;7.62;;;;;;;7.02;100.00;98730.70;1726011;83;21576;-82
2022/10/29 03:36:02;;;;;;;19.48;8.93;;;;;;;7.04;100.00;98733.15;1703459;83;21321;-82
2022/10/29 03:38:28;;;;;;;15.38;9.35;;;;;;;7.06;100.00;98730.49;1725995;83;20989;-82
2022/10/29 03:40:54;;;;;;;17.25;9.28;;;;;;;7.12;100.00;98734.65;1725690;83;20913;-81
2022/10/29 03:43:20;;;;;;;19.42;9.60;;;;;;;7.08;100.00;98735.64;1720261;83;20978;-82
2022/10/29 03:45:53;;;;;;;19.77;9.48;;;;;;;7.08;100.00;98745.07;1697129;84;20958;-81
2022/10/29 03:48:19;;;;;;;14.87;8.68;;;;;;;7.07;100.00;98744.78;1696842;84;21076;-82
2022/10/29 03:50:58;;;;;;;19.25;9.40;;;;;;;7.06;100.00;98732.38;1696950;84;20999;-81
2022/10/29 03:53:24;;;;;;;17.00;8.58;;;;;;;7.08;100.00;98724.33;1696985;84;21450;-81
2022/10/29 03:55:51;;;;;;;19.90;9.20;;;;;;;7.06;100.00;98723.76;1697142;84;21054;-82
2022/10/29 03:58:17;;;;;;;14.87;8.15;;;;;;;7.04;100.00;98725.88;1696847;84;20987;-83
2022/10/29 04:00:43;;;;;;;16.30;8.40;;;;;;;7.08;100.00;98724.33;1665203;84;21842;-80
2022/10/29 04:03:10;;;;;;;16.60;8.10;;;;;;;7.13;100.00;98721.45;1696880;84;21035;-81
2022/10/29 04:05:35;;;;;;;15.28;7.40;;;;;;;7.23;100.00;98721.12;1697031;84;21062;-82
2022/10/29 04:08:02;;;;;;;14.23;7.10;;;;;;;7.29;100.00;98716.65;1710753;83;20873;-82
2022/10/29 04:10:30;;;;;;;11.83;6.95;;;;;;;7.30;100.00;98712.89;1711760;83;21426;-82
2022/10/29 04:12:56;;;;;;;12.33;7.60;;;;;;;7.33;100.00;98707.00;1713781;82;21922;-82
2022/10/29 04:15:22;;;;;;;11.57;7.15;;;;;;;7.38;100.00;98716.55;1694253;83;20931;-82
2022/10/29 04:17:50;;;;;;;14.07;7.75;;;;;;;7.46;100.00;98713.99;1709382;82;20970;-80
2022/10/29 04:20:16;;;;;;;15.68;9.55;;;;;;;7.56;100.00;98719.03;1708250;83;21427;-81
2022/10/29 04:22:42;;;;;;;13.72;7.78;;;;;;;7.64;100.00;98732.65;1708084;83;20898;-81
2022/10/29 04:25:08;;;;;;;16.60;7.62;;;;;;;7.69;100.00;98731.91;1706676;84;21168;-82
2022/10/29 04:27:34;;;;;;;13.65;6.80;;;;;;;7.81;100.00;98729.44;1704369;84;20987;-82
2022/10/29 04:30:01;;;;;;;18.50;8.35;;;;;;;8.12;100.00;98728.59;1704584;83;20973;-81
2022/10/29 04:32:27;;;;;;;15.30;9.05;;;;;;;8.46;100.00;98714.02;1704557;84;20977;-81
2022/10/29 04:34:53;;;;;;;17.32;10.40;;;;;;;8.55;100.00;98726.55;1704406;84;21209;-82
2022/10/29 04:37:18;;;;;;;16.90;8.93;;;;;;;8.38;100.00;98737.92;1704619;84;21095;-82
2022/10/29 04:39:44;;;;;;;12.82;7.80;;;;;;;8.25;100.00;98736.88;1704516;84;20949;-82
2022/10/29 04:42:10;;;;;;;19.25;9.68;;;;;;;8.16;100.00;98731.07;1704479;84;20953;-83
2022/10/29 04:44:36;;;;;;;10.82;7.08;;;;;;;8.11;100.00;98721.53;1707078;84;20997;-82
2022/10/29 04:47:02;;;;;;;15.65;7.42;;;;;;;8.10;100.00;98718.55;1707879;84;20967;-81
2022/10/29 04:49:28;;;;;;;16.12;9.30;;;;;;;8.11;100.00;98724.23;1708140;84;21242;-82
2022/10/29 04:51:54;;;;;;;20.12;9.10;;;;;;;8.01;100.00;98724.08;1708109;83;20910;-82
2022/10/29 04:54:20;;;;;;;17.05;9.33;;;;;;;7.88;100.00;98721.19;1707925;83;20974;-82
2022/10/29 04:56:46;;;;;;;17.62;8.78;;;;;;;7.81;100.00;98719.17;1708092;83;20942;-81
2022/10/29 04:59:12;;;;;;;13.62;9.23;;;;;;;7.79;100.00;98724.83;1707953;83;21548;-82
2022/10/29 05:01:38;;;;;;;20.72;9.78;;;;;;;7.80;100.00;98721.59;1708102;83;21514;-82
2022/10/29 05:04:04;;;;;;;146.93;92.02;;;;;;;7.75;100.00;98724.19;1707808;84;20982;-82
2022/10/29 05:06:30;;;;;;;40.08;24.10;;;;;;;7.70;100.00;98732.22;1708043;84;21069;-82
2022/10/29 05:08:56;;;;;;;15.25;10.20;;;;;;;7.64;100.00;98734.81;1704616;84;20921;-82
2022/10/29 05:11:22;;;;;;;15.32;9.93;;;;;;;7.60;100.00;98739.58;1704397;84;20965;-81
2022/10/29 05:13:48;;;;;;;15.48;8.88;;;;;;;7.58;100.00;98734.43;1693682;83;20910;-81
2022/10/29 05:16:13;;;;;;;17.02;10.13;;;;;;;7.59;100.00;98741.45;1708450;84;20862;-82
2022/10/29 05:18:39;;;;;;;21.25;11.70;;;;;;;7.61;100.00;98738.54;1708427;84;20948;-82
2022/10/29 05:21:05;;;;;;;22.70;14.13;;;;;;;7.69;100.00;98734.09;1706893;83;20870;-82
2022/10/29 05:23:32;;;;;;;24.00;14.93;;;;;;;7.75;100.00;98737.68;1706580;83;21064;-80
2022/10/29 05:25:57;;;;;;;16.95;12.45;;;;;;;7.75;100.00;98741.20;1707752;83;21121;-82
2022/10/29 05:28:24;;;;;;;18.48;9.63;;;;;;;7.77;100.00;98739.59;1707967;84;20863;-81
2022/10/29 05:30:51;;;;;;;15.90;8.58;;;;;;;7.80;100.00;98740.48;1708148;83;21002;-82
2022/10/29 05:33:19;;;;;;;12.65;7.62;;;;;;;7.81;100.00;98739.41;1707962;84;20979;-81
2022/10/29 05:35:45;;;;;;;15.75;8.98;;;;;;;7.81;100.00;98738.88;1708178;84;21013;-81
2022/10/29 05:38:12;;;;;;;11.90;7.95;;;;;;;7.82;100.00;98728.91;1708010;84;21690;-81
2022/10/29 05:40:38;;;;;;;16.62;8.60;;;;;;;7.80;100.00;98727.80;1707961;84;20990;-80
2022/10/29 05:43:04;;;;;;;15.30;8.80;;;;;;;7.80;100.00;98731.85;1705640;84;21013;-82
2022/10/29 05:45:30;;;;;;;15.75;8.65;;;;;;;7.87;100.00;98738.45;1679792;85;20924;-82
2022/10/29 05:47:57;;;;;;;12.90;8.50;;;;;;;7.94;100.00;98733.68;1679681;85;20864;-82
2022/10/29 05:50:23;;;;;;;18.25;9.45;;;;;;;7.98;100.00;98719.18;1679616;85;21429;-82
2022/10/29 05:53:00;;;;;;;19.02;9.83;;;;;;;8.03;100.00;98711.99;1687735;82;20991;-82
2022/10/29 05:55:26;;;;;;;22.00;11.40;;;;;;;8.05;100.00;98706.34;1689890;84;21010;-82
2022/10/29 05:57:59;;;;;;;18.12;10.45;;;;;;;8.03;100.00;98695.80;1686980;84;21489;-82
2022/10/29 06:00:26;;;;;;;15.65;9.20;;;;;;;8.04;100.00;98681.23;1701362;84;21053;-82
2022/10/29 06:02:52;;;;;;;16.87;10.30;;;;;;;8.08;100.00;98670.22;1684076;84;21744;-82
2022/10/29 06:05:18;;;;;;;16.15;9.53;;;;;;;8.11;100.00;98664.84;1679556;85;20898;-82
2022/10/29 06:07:45;;;;;;;14.83;8.60;;;;;;;8.16;100.00;98663.05;1694125;84;21026;-82
2022/10/29 06:10:11;;;;;;;16.27;9.90;;;;;;;8.22;100.00;98649.63;1728794;82;21012;-81
2022/10/29 06:12:37;;;;;;;16.42;9.38;;;;;;;8.27;100.00;98663.18;1708621;82;20902;-82
2022/10/29 06:15:03;;;;;;;17.00;10.58;;;;;;;8.34;100.00;98665.17;1708429;84;21171;-81
2022/10/29 06:17:29;;;;;;;20.52;9.13;;;;;;;8.45;100.00;98675.07;1707843;84;20959;-82
2022/10/29 06:19:55;;;;;;;12.53;7.78;;;;;;;8.65;100.00;98678.59;1708045;84;21592;-82
2022/10/29 06:22:21;;;;;;;15.65;8.30;;;;;;;8.88;100.00;98694.53;1707941;84;20990;-81
2022/10/29 06:24:47;;;;;;;12.30;5.42;;;;;;;9.01;100.00;98691.45;1706921;84;21532;-82
2022/10/29 06:27:13;;;;;;;14.95;6.35;;;;;;;9.30;100.00;98704.20;1704643;84;21044;-81
2022/10/29 06:29:38;;;;;;;18.40;6.78;;;;;;;9.66;100.00;98704.57;1678449;83;20940;-81
2022/10/29 06:32:04;;;;;;;20.80;8.98;;;;;;;10.06;100.00;98713.55;1711517;83;20976;-83
2022/10/29 06:34:30;;;;;;;17.92;8.40;;;;;;;10.36;100.00;98717.59;1721690;81;21081;-81
2022/10/29 06:36:56;;;;;;;18.82;10.05;;;;;;;10.44;100.00;98692.72;1722244;83;20945;-82
2022/10/29 06:39:22;;;;;;;26.15;16.90;;;;;;;10.48;100.00;98709.25;1722031;83;21082;-81
2022/10/29 06:41:48;;;;;;;25.05;10.65;;;;;;;10.47;100.00;98713.05;1721926;83;20948;-83
2022/10/29 06:44:14;;;;;;;17.07;9.08;;;;;;;10.47;100.00;98708.98;1724278;81;20972;-82
2022/10/29 06:46:40;;;;;;;29.18;16.90;;;;;;;10.41;100.00;98714.89;1726265;82;21575;-81
2022/10/29 06:49:06;;;;;;;22.52;13.40;;;;;;;10.38;100.00;98729.79;1725968;83;20970;-81
2022/10/29 06:51:32;;;;;;;19.15;10.68;;;;;;;10.26;100.00;98740.02;1726223;83;21020;-81
2022/10/29 06:53:59;;;;;;;17.75;8.75;;;;;;;10.28;100.00;98731.08;1725761;83;21021;-82
2022/10/29 06:56:25;;;;;;;16.10;10.48;;;;;;;10.28;100.00;98727.02;1725993;83;20924;-81
2022/10/29 06:58:51;;;;;;;16.35;9.65;;;;;;;10.30;100.00;98734.34;1725886;83;21635;-81
2022/10/29 07:01:17;;;;;;;14.40;9.30;;;;;;;10.35;100.00;98736.28;1726148;82;20985;-82
2022/10/29 07:03:42;;;;;;;14.00;8.25;;;;;;;10.40;100.00;98730.88;1713950;80;21842;-81
2022/10/29 07:06:09;;;;;;;22.62;10.93;;;;;;;10.42;100.00;98733.63;1748286;80;20858;-81
2022/10/29 07:08:35;;;;;;;13.68;9.68;;;;;;;10.43;100.00;98744.73;1758443;80;21055;-82
2022/10/29 07:11:01;;;;;;;23.30;9.68;;;;;;;10.49;100.00;98740.69;1740373;80;21508;-83
2022/10/29 07:13:27;;;;;;;20.60;12.28;;;;;;;10.58;100.00;98738.58;1742895;80;21517;-82
2022/10/29 07:15:53;;;;;;;19.90;10.82;;;;;;;10.69;100.00;98733.51;1730625;80;21144;-83
2022/10/29 07:18:19;;;;;;;19.85;12.13;;;;;;;10.82;100.00;98732.74;1746776;81;21102;-82
2022/10/29 07:20:45;;;;;;;12.70;9.48;;;;;;;10.94;100.00;98736.08;1747957;80;20918;-82
2022/10/29 07:23:12;;;;;;;21.10;12.30;;;;;;;10.96;100.00;98736.62;1777340;80;20955;-83
2022/10/29 07:25:38;;;;;;;17.60;11.95;;;;;;;11.07;100.00;98734.21;1744024;80;21063;-83
2022/10/29 07:28:17;;;;;;;15.03;10.08;;;;;;;11.23;100.00;98735.09;1724454;83;21245;-81
2022/10/29 07:30:43;;;;;;;21.10;11.88;;;;;;;11.56;100.00;98733.82;1743154;81;20954;-81
2022/10/29 07:33:09;;;;;;;12.00;9.00;;;;;;;11.56;100.00;98733.82;1755801;80;21017;-81
2022/10/29 07:35:35;;;;;;;15.08;8.53;;;;;;;11.75;100.00;98741.72;1756194;81;20970;-81
2022/10/29 07:38:02;;;;;;;34.63;20.05;;;;;;;11.92;100.00;98748.28;1742204;80;20889;-83
2022/10/29 07:40:28;;;;;;;17.52;12.23;;;;;;;12.08;100.00;98747.20;1693730;82;21313;-82
2022/10/29 07:42:54;;;;;;;15.38;8.38;;;;;;;12.23;100.00;98761.34;1708730;82;20898;-82
2022/10/29 07:45:20;;;;;;;15.88;8.25;;;;;;;12.30;100.00;98764.57;1679704;85;20909;-82
2022/10/29 07:47:47;;;;;;;14.43;8.40;;;;;;;12.50;100.00;98776.54;1679268;84;21524;-83
2022/10/29 07:50:13;;;;;;;13.35;7.20;;;;;;;12.68;100.00;98775.96;1693438;82;20954;-83
2022/10/29 07:52:40;;;;;;;21.77;9.85;;;;;;;12.85;100.00;98780.55;1722335;82;21276;-82
2022/10/29 07:55:07;;;;;;;16.32;10.78;;;;;;;12.98;100.00;98773.15;1711516;82;21510;-83
2022/10/29 07:57:33;;;;;;;27.42;13.83;;;;;;;13.12;100.00;98763.05;1712264;82;21010;-83
2022/10/29 07:59:59;;;;;;;19.95;11.68;;;;;;;13.24;100.00;98765.77;1712010;82;20969;-82
2022/10/29 08:02:24;;;;;;;18.20;11.22;;;;;;;13.36;100.00;98763.25;1706888;84;20997;-83
2022/10/29 08:04:50;;;;;;;19.15;11.38;;;;;;;13.46;100.00;98768.64;1710697;82;21369;-82
2022/10/29 08:07:16;;;;;;;17.15;11.25;;;;;;;13.56;100.00;98771.30;1725979;82;21577;-82
2022/10/29 08:09:42;;;;;;;23.05;15.93;;;;;;;13.63;100.00;98769.64;1720821;82;20955;-82
2022/10/29 08:12:09;;;;;;;18.35;12.90;;;;;;;13.68;100.00;98765.54;1722008;82;20878;-83
2022/10/29 08:14:35;;;;;;;20.35;9.53;;;;;;;13.70;100.00;98772.88;1707880;84;21446;-83
2022/10/29 08:17:01;;;;;;;12.88;9.25;;;;;;;13.75;100.00;98772.83;1707918;84;21088;-83
2022/10/29 08:19:28;;;;;;;17.25;12.28;;;;;;;13.76;100.00;98783.47;1707891;84;20957;-83
2022/10/29 08:21:55;;;;;;;20.45;11.50;;;;;;;13.75;100.00;98776.36;1708008;84;21274;-83
2022/10/29 08:24:21;;;;;;;19.65;8.98;;;;;;;13.76;100.00;98784.83;1707098;84;20986;-83
2022/10/29 08:26:49;;;;;;;15.00;10.08;;;;;;;13.79;100.00;98790.25;1704551;84;20966;-82
2022/10/29 08:29:16;;;;;;;17.83;7.63;;;;;;;13.81;100.00;98792.95;1704330;84;21072;-83
2022/10/29 08:31:41;;;;;;;15.88;9.53;;;;;;;13.88;100.00;98791.83;1704349;84;20989;-83
2022/10/29 08:34:07;;;;;;;17.55;10.23;;;;;;;13.96;100.00;98798.05;1704194;84;20870;-83
2022/10/29 08:36:33;;;;;;;18.25;11.10;;;;;;;14.04;100.00;98794.17;1713871;82;20881;-81
2022/10/29 08:38:59;;;;;;;21.52;12.30;;;;;;;14.24;100.00;98800.00;1716625;82;21547;-82
2022/10/29 08:41:49;;;;;;;17.20;12.10;;;;;;;14.48;100.00;98800.67;1715122;82;21215;-81
2022/10/29 08:44:49;;;;;;;13.38;8.90;;;;;;;14.71;100.00;98793.66;1723912;82;20978;-82
2022/10/29 08:47:22;;;;;;;16.77;11.68;;;;;;;14.98;100.00;98787.64;1705119;82;20994;-82
2022/10/29 08:50:27;;;;;;;19.90;10.00;;;;;;;15.17;100.00;98790.68;1657809;84;21063;-82
2022/10/29 08:52:53;;;;;;;15.23;9.75;;;;;;;15.35;100.00;98797.29;1683382;83;20978;-83
2022/10/29 08:55:24;;;;;;;11.83;8.10;;;;;;;15.50;100.00;98794.38;1667424;85;21770;-81
2022/10/29 08:57:54;;;;;;;30.55;18.82;;;;;;;15.56;100.00;98786.94;1692897;83;21504;-82
2022/10/29 09:00:23;;;;;;;21.65;12.10;;;;;;;15.59;100.00;98785.53;1715424;83;20988;-83
2022/10/29 09:02:56;;;;;;;20.95;10.88;;;;;;;15.59;100.00;98791.80;1715813;83;21393;-82
2022/10/29 09:05:33;;;;;;;16.77;9.55;;;;;;;15.57;100.00;98794.02;1715379;83;20960;-81
2022/10/29 09:08:20;;;;;;;16.48;9.18;;;;;;;15.52;99.27;98791.34;1710611;82;22086;-82
2022/10/29 09:10:56;;;;;;;14.80;10.53;;;;;;;15.46;98.65;98789.22;1714456;82;21504;-84
2022/10/29 09:14:02;;;;;;;14.85;8.28;;;;;;;15.36;97.43;98798.10;1733744;82;21458;-82
2022/10/29 09:16:53;;;;;;;18.30;10.72;;;;;;;15.33;98.40;98798.70;1730768;82;21008;-83
2022/10/29 09:20:01;;;;;;;15.75;9.13;;;;;;;15.38;98.77;98794.00;1740208;82;21025;-82
2022/10/29 09:23:04;;;;;;;16.55;7.97;;;;;;;15.49;98.19;98791.94;1743310;82;21205;-82
2022/10/29 09:25:34;;;;;;;14.85;9.50;;;;;;;15.57;93.54;98795.94;1726919;82;21413;-82
2022/10/29 09:28:14;;;;;;;17.85;10.28;;;;;;;15.76;93.15;98789.41;1715521;82;21005;-83
2022/10/29 09:31:10;;;;;;;11.40;7.97;;;;;;;16.07;96.12;98782.14;1711173;83;21021;-83
2022/10/29 09:33:36;;;;;;;18.10;9.05;;;;;;;16.30;96.96;98785.86;1703228;83;20994;-82
2022/10/29 09:36:04;;;;;;;12.07;7.60;;;;;;;16.55;96.32;98779.15;1704483;84;21153;-83
2022/10/29 09:38:35;;;;;;;18.07;9.38;;;;;;;16.64;96.67;98786.92;1713962;83;20962;-82
2022/10/29 09:41:02;;;;;;;14.85;8.48;;;;;;;16.64;92.50;98783.63;1714215;83;21096;-82
2022/10/29 09:43:46;;;;;;;15.98;8.98;;;;;;;16.63;92.62;98778.46;1717970;82;20997;-81
2022/10/29 09:46:43;;;;;;;15.45;7.95;;;;;;;16.66;93.32;98773.74;1721068;81;21454;-84
2022/10/29 09:49:43;;;;;;;12.05;7.08;;;;;;;16.68;91.47;98770.73;1755818;80;21798;-82
2022/10/29 09:52:22;;;;;;;16.12;7.53;;;;;;;16.72;92.98;98763.56;1755604;81;21021;-81
2022/10/29 09:54:48;;;;;;;;;;;;;;;16.78;91.70;98763.17;1753965;81;20965;-82
2022/10/29 09:57:20;;;;;;;13.60;8.25;;;;;;;16.84;93.04;98752.39;1747436;79;20178;-82
2022/10/29 09:59:51;;;;;;;14.40;8.88;;;;;;;16.83;86.90;98756.22;1751394;80;20958;-84
2022/10/29 10:02:38;;;;;;;13.68;7.08;;;;;;;16.98;91.81;98757.86;1725851;80;21843;-83
2022/10/29 10:05:09;;;;;;;17.30;9.88;;;;;;;17.08;92.30;98748.63;1726109;82;21010;-82
2022/10/29 10:07:35;;;;;;;12.63;7.70;;;;;;;17.19;89.06;98744.03;1723916;83;21008;-84
2022/10/29 10:10:02;;;;;;;17.30;10.08;;;;;;;17.34;89.37;98729.18;1721576;82;20942;-84
2022/10/29 10:12:39;;;;;;;12.35;6.33;;;;;;;17.48;88.06;98730.54;1707053;83;22030;-82
2022/10/29 10:15:34;;;;;;;12.75;7.47;;;;;;;17.66;90.00;98728.77;1722179;82;21154;-82
2022/10/29 10:18:07;;;;;;;15.58;7.72;;;;;;;17.82;90.41;98729.27;1711576;83;21077;-84
2022/10/29 10:20:39;;;;;;;10.78;7.05;;;;;;;17.89;88.80;98735.94;1720934;82;21007;-82
2022/10/29 10:23:30;;;;;;;16.10;6.78;;;;;;;17.91;89.73;98723.29;1722517;81;20976;-82
2022/10/29 10:25:57;;;;;;;13.55;7.00;;;;;;;17.94;89.08;98717.98;1729457;81;20958;-84
2022/10/29 10:28:29;;;;;;;11.80;7.20;;;;;;;17.94;88.76;98709.75;1730143;81;21235;-82
2022/10/29 10:31:11;;;;;;;10.68;6.90;;;;;;;17.95;89.02;98710.03;1744184;81;20978;-82
2022/10/29 10:33:53;;;;;;;18.10;7.70;;;;;;;17.94;88.54;98715.23;1743119;81;21017;-82
2022/10/29 10:36:24;;;;;;;17.98;9.00;;;;;;;17.99;89.05;98717.88;1751609;79;21029;-81
2022/10/29 10:38:55;;;;;;;13.05;6.80;;;;;;;18.04;89.15;98719.69;1755597;79;21383;-84
2022/10/29 10:41:25;;;;;;;11.83;5.28;;;;;;;18.17;86.67;98712.51;1756087;81;21170;-82
2022/10/29 10:43:51;;;;;;;11.05;6.03;;;;;;;18.28;82.83;98709.75;1744083;81;20957;-83
2022/10/29 10:46:26;;;;;;;15.13;5.95;;;;;;;18.43;86.17;98713.47;1711742;83;20993;-82
2022/10/29 10:49:01;;;;;;;11.70;6.25;;;;;;;18.47;83.58;98700.77;1736474;81;21012;-84
2022/10/29 10:51:30;;;;;;;13.98;6.10;;;;;;;18.58;85.75;98705.41;1732871;81;21414;-82
2022/10/29 10:53:58;;;;;;;12.63;6.90;;;;;;;18.66;85.13;98706.61;1740501;81;21859;-84
2022/10/29 10:56:24;;;;;;;13.28;6.62;;;;;;;18.67;85.02;98702.17;1726116;83;20981;-82
2022/10/29 10:59:06;;;;;;;20.20;9.70;;;;;;;18.71;85.27;98696.28;1725841;83;20902;-82
2022/10/29 11:01:40;;;;;;;26.57;16.45;;;;;;;18.70;81.48;98695.23;1710709;83;21060;-82
2022/10/29 11:04:20;;;;;;;11.55;6.42;;;;;;;18.83;83.85;98703.94;1694802;84;21000;-84
2022/10/29 11:06:48;;;;;;;10.50;5.37;;;;;;;18.86;81.57;98697.80;1696919;82;21064;-84
2022/10/29 11:09:26;;;;;;;;;;;;;;;18.81;78.63;98691.09;1747477;82;21509;-82
2022/10/29 11:12:04;;;;;;;12.93;5.70;;;;;;;18.84;78.41;98694.57;1745246;82;20516;-84
2022/10/29 11:14:36;;;;;;;;;;;;;;;18.91;80.53;98690.80;1746499;82;21028;-82
2022/10/29 11:17:03;;;;;;;13.88;6.00;;;;;;;18.84;78.39;98683.02;1744285;82;20158;-84
2022/10/29 11:19:40;;;;;;;16.97;6.17;;;;;;;18.86;80.67;98684.88;1745235;82;21508;-82
2022/10/29 11:22:33;;;;;;;7.78;4.15;;;;;;;18.84;80.38;98679.47;1744978;82;21056;-84
2022/10/29 11:25:19;;;;;;;10.00;4.45;;;;;;;18.82;79.84;98676.23;1738115;82;20986;-83
2022/10/29 11:28:24;;;;;;;11.40;4.40;;;;;;;18.77;77.98;98677.18;1726046;82;20986;-84
2022/10/29 11:31:04;;;;;;;10.90;4.28;;;;;;;18.76;75.86;98676.94;1689566;83;21021;-82
2022/10/29 11:33:50;;;;;;;8.15;4.58;;;;;;;18.83;77.69;98681.97;1726125;82;21165;-82
2022/10/29 11:36:22;;;;;;;8.43;3.95;;;;;;;18.80;75.54;98673.81;1725945;83;20986;-82
2022/10/29 11:39:02;;;;;;;12.88;4.58;;;;;;;18.85;75.83;98669.53;1724689;83;20986;-84